createdAt,value
2019-05-10T00:01:23.148Z,99.90
2019-05-10T00:04:17.075Z,99.90
2019-05-10T00:10:36.319Z,99.90
2019-05-10T00:13:14.374Z,99.90
2019-05-10T00:15:47.978Z,99.90
2019-05-10T00:18:21.693Z,99.90
2019-05-10T00:20:55.348Z,99.90
2019-05-10T00:27:06.578Z,99.90
2019-05-10T00:29:43.180Z,99.90
2019-05-10T00:32:16.884Z,99.90
2019-05-10T00:34:50.608Z,99.90
2019-05-10T00:37:24.362Z,99.90
2019-05-10T00:39:58.033Z,99.90
2019-05-10T00:42:31.653Z,99.90
2019-05-10T00:45:07.153Z,99.90
2019-05-10T00:47:40.740Z,99.90
2019-05-10T00:50:14.506Z,99.90
2019-05-10T00:52:48.188Z,99.90
2019-05-10T00:55:21.784Z,99.90
2019-05-10T00:57:55.378Z,99.90
2019-05-10T01:00:29.152Z,99.90
2019-05-10T01:03:02.741Z,99.90
2019-05-10T01:05:36.443Z,99.90
2019-05-10T01:08:10.093Z,99.90
2019-05-10T01:10:43.730Z,99.90
2019-05-10T01:13:17.296Z,99.90
2019-05-10T01:15:50.949Z,99.90
2019-05-10T01:18:24.728Z,99.90
2019-05-10T01:20:58.312Z,99.90
2019-05-10T01:23:31.909Z,99.90
2019-05-10T01:26:05.531Z,99.90
2019-05-10T01:28:39.186Z,99.90
2019-05-10T01:31:12.910Z,99.90
2019-05-10T01:33:46.578Z,99.90
2019-05-10T01:39:57.570Z,99.90
2019-05-10T01:42:31.147Z,99.90
2019-05-10T01:45:06.926Z,99.90
2019-05-10T01:47:40.528Z,99.90
2019-05-10T01:50:14.390Z,99.90
2019-05-10T01:56:24.587Z,99.90
2019-05-10T01:58:58.258Z,99.90
2019-05-10T02:01:31.949Z,99.90
2019-05-10T02:04:05.673Z,99.90
2019-05-10T02:06:39.299Z,99.90
2019-05-10T02:09:12.879Z,99.90
2019-05-10T02:11:46.507Z,99.90
2019-05-10T02:14:20.078Z,99.90
2019-05-10T02:16:53.865Z,99.90
2019-05-10T02:19:27.443Z,99.90
2019-05-10T02:22:01.144Z,99.90
2019-05-10T02:24:34.747Z,99.90
2019-05-10T02:27:08.350Z,99.90
2019-05-10T02:29:41.991Z,99.90
2019-05-10T02:32:15.673Z,99.90
2019-05-10T02:34:49.303Z,99.90
2019-05-10T02:37:22.934Z,99.90
2019-05-10T02:39:56.698Z,99.90
2019-05-10T02:42:30.369Z,99.90
2019-05-10T02:45:08.475Z,99.90
2019-05-10T02:47:42.126Z,99.90
2019-05-10T02:50:16.126Z,99.90
2019-05-10T02:52:50.188Z,99.90
2019-05-10T02:55:23.879Z,99.90
2019-05-10T02:57:57.785Z,99.90
2019-05-10T03:00:34.731Z,99.90
2019-05-10T03:03:08.564Z,99.90
2019-05-10T03:05:48.128Z,99.90
2019-05-10T03:08:19.212Z,99.90
2019-05-10T03:10:57.979Z,99.90
2019-05-10T03:13:31.941Z,99.90
2019-05-10T03:16:06.085Z,99.90
2019-05-10T03:18:42.132Z,99.90
2019-05-10T03:21:17.971Z,99.90
2019-05-10T03:23:52.000Z,99.90
2019-05-10T03:26:25.779Z,99.90
2019-05-10T03:28:59.459Z,99.90
2019-05-10T03:31:33.189Z,99.90
2019-05-10T03:34:06.884Z,99.90
2019-05-10T03:40:17.968Z,99.90
2019-05-10T03:42:51.612Z,99.90
2019-05-10T03:45:25.257Z,99.90
2019-05-10T03:47:59.018Z,99.90
2019-05-10T03:50:32.690Z,99.90
2019-05-10T03:57:10.986Z,99.90
2019-05-10T03:59:27.628Z,99.90
2019-05-10T04:02:01.239Z,99.90
2019-05-10T04:04:34.964Z,99.90
2019-05-10T04:07:08.567Z,99.90
2019-05-10T04:09:42.213Z,99.90
2019-05-10T04:12:15.933Z,99.90
2019-05-10T04:14:49.639Z,99.90
2019-05-10T04:17:23.240Z,99.90
2019-05-10T04:19:57.009Z,99.90
2019-05-10T04:22:30.671Z,99.90
2019-05-10T04:25:05.171Z,99.90
2019-05-10T04:27:38.837Z,99.90
2019-05-10T04:30:14.357Z,99.90
2019-05-10T04:32:48.000Z,99.90
2019-05-10T04:35:21.626Z,99.90
2019-05-10T04:37:55.272Z,99.90
2019-05-10T04:40:28.918Z,99.90
2019-05-10T04:43:02.573Z,99.90
2019-05-10T04:45:36.309Z,99.90
2019-05-10T04:48:09.962Z,99.90
2019-05-10T04:50:43.587Z,99.90
2019-05-10T04:53:17.502Z,99.90
2019-05-10T04:55:52.328Z,99.90
2019-05-10T04:58:26.099Z,99.90
2019-05-10T05:00:59.726Z,99.90
2019-05-10T05:03:33.390Z,99.90
2019-05-10T05:06:07.134Z,99.90
2019-05-10T05:08:40.687Z,99.90
2019-05-10T05:11:14.319Z,99.90
2019-05-10T05:13:47.933Z,99.90
2019-05-10T05:16:21.593Z,99.90
2019-05-10T05:18:55.190Z,99.90
2019-05-10T05:21:28.815Z,99.90
2019-05-10T05:24:02.490Z,99.90
2019-05-10T05:26:36.215Z,99.90
2019-05-10T05:29:09.830Z,99.90
2019-05-10T05:31:43.479Z,99.90
2019-05-10T05:34:17.069Z,99.90
2019-05-10T05:36:50.682Z,99.90
2019-05-10T05:39:24.293Z,99.90
2019-05-10T05:41:57.898Z,99.90
2019-05-10T05:44:31.556Z,99.90
2019-05-10T05:47:05.215Z,99.90
2019-05-10T05:49:38.853Z,99.90
2019-05-10T05:56:03.583Z,99.90
2019-05-10T05:58:38.123Z,99.90
2019-05-10T06:01:09.352Z,99.90
2019-05-10T06:03:42.929Z,99.90
2019-05-10T06:06:21.599Z,99.90
2019-05-10T06:12:29.001Z,99.90
2019-05-10T06:15:02.662Z,99.90
2019-05-10T06:17:36.291Z,99.90
2019-05-10T06:20:12.203Z,99.90
2019-05-10T06:23:04.157Z,99.90
2019-05-10T06:25:38.011Z,99.90
2019-05-10T06:27:56.554Z,99.90
2019-05-10T06:30:30.238Z,99.90
2019-05-10T06:33:12.677Z,99.90
2019-05-10T06:35:39.328Z,99.90
2019-05-10T06:38:13.054Z,99.90
2019-05-10T06:40:47.958Z,99.90
2019-05-10T06:43:21.928Z,99.90
2019-05-10T06:45:55.841Z,99.90
2019-05-10T06:48:33.489Z,99.90
2019-05-10T06:51:09.323Z,99.90
2019-05-10T06:53:41.577Z,99.90
2019-05-10T06:56:15.736Z,99.90
2019-05-10T06:58:49.419Z,99.90
2019-05-10T07:01:23.099Z,99.90
2019-05-10T07:03:56.883Z,99.90
2019-05-10T07:06:30.489Z,99.90
2019-05-10T07:09:05.987Z,99.90
2019-05-10T07:11:39.724Z,99.90
2019-05-10T07:14:13.573Z,99.90
2019-05-10T07:16:47.140Z,99.90
2019-05-10T07:19:20.780Z,99.90
2019-05-10T07:21:54.378Z,99.90
2019-05-10T07:24:28.035Z,99.90
2019-05-10T07:27:02.812Z,99.90
2019-05-10T07:29:43.273Z,99.90
2019-05-10T07:32:16.432Z,99.90
2019-05-10T07:34:48.843Z,99.90
2019-05-10T07:37:23.055Z,99.90
2019-05-10T07:39:56.747Z,99.90
2019-05-10T07:42:30.377Z,99.90
2019-05-10T07:45:06.243Z,99.90
2019-05-10T07:47:39.905Z,99.90
2019-05-10T07:50:13.674Z,99.90
2019-05-10T07:56:33.522Z,99.90
2019-05-10T07:59:07.199Z,99.90
2019-05-10T08:01:40.829Z,99.90
2019-05-10T08:04:19.859Z,99.90
2019-05-10T08:06:51.998Z,99.90
2019-05-10T08:13:15.311Z,99.90
2019-05-10T08:15:48.929Z,99.90
2019-05-10T08:18:25.269Z,99.80
2019-05-10T08:21:02.206Z,98.90
2019-05-10T08:23:32.700Z,99.00
2019-05-10T08:26:10.874Z,98.10
2019-05-10T08:28:44.431Z,97.60
2019-05-10T08:31:17.244Z,97.30
2019-05-10T08:33:58.801Z,96.90
2019-05-10T08:36:26.192Z,96.80
2019-05-10T08:39:05.339Z,97.30
2019-05-10T08:41:35.191Z,96.70
2019-05-10T08:44:16.622Z,96.90
2019-05-10T08:46:44.481Z,96.70
2019-05-10T08:49:22.127Z,97.10
2019-05-10T08:51:53.538Z,96.80
2019-05-10T08:54:27.284Z,98.00
2019-05-10T08:57:05.089Z,97.80
2019-05-10T08:59:36.301Z,97.00
2019-05-10T09:02:09.892Z,95.20
2019-05-10T09:04:49.631Z,95.10
2019-05-10T09:07:18.814Z,95.70
2019-05-10T09:09:53.109Z,95.30
2019-05-10T09:12:29.457Z,93.60
2019-05-10T09:15:06.534Z,95.10
2019-05-10T09:17:37.580Z,93.20
2019-05-10T09:20:20.433Z,94.10
2019-05-10T09:22:46.703Z,93.60
2019-05-10T09:25:29.158Z,92.40
2019-05-10T09:27:55.888Z,92.00
2019-05-10T09:30:36.884Z,91.90
2019-05-10T09:33:14.141Z,91.40
2019-05-10T09:35:51.504Z,91.10
2019-05-10T09:42:10.076Z,91.20
2019-05-10T09:44:45.604Z,89.20
2019-05-10T09:47:17.613Z,89.50
2019-05-10T09:49:56.699Z,91.00
2019-05-10T09:52:26.550Z,91.00
2019-05-10T09:58:48.464Z,89.40
2019-05-10T10:01:23.051Z,85.80
2019-05-10T10:03:58.334Z,86.50
2019-05-10T10:06:32.027Z,85.70
2019-05-10T10:09:08.570Z,87.40
2019-05-10T10:11:48.059Z,86.90
2019-05-10T10:14:18.048Z,87.80
2019-05-10T10:16:58.444Z,89.70
2019-05-10T10:19:27.824Z,89.80
2019-05-10T10:22:05.692Z,87.30
2019-05-10T10:24:40.828Z,90.00
2019-05-10T10:27:12.927Z,91.40
2019-05-10T10:29:47.493Z,90.50
2019-05-10T10:32:24.811Z,90.90
2019-05-10T10:34:57.793Z,91.60
2019-05-10T10:37:31.542Z,91.30
2019-05-10T10:40:08.592Z,90.80
2019-05-10T10:42:41.777Z,90.70
2019-05-10T10:45:17.368Z,90.40
2019-05-10T10:47:52.289Z,90.70
2019-05-10T10:50:27.602Z,90.40
2019-05-10T10:53:01.501Z,89.80
2019-05-10T10:55:39.366Z,89.20
2019-05-10T10:58:10.521Z,88.00
2019-05-10T11:00:44.179Z,87.50
2019-05-10T11:03:17.849Z,84.20
2019-05-10T11:05:51.489Z,85.00
2019-05-10T11:12:14.770Z,83.30
2019-05-10T11:14:46.568Z,85.00
2019-05-10T11:17:20.202Z,84.60
2019-05-10T11:19:53.797Z,84.60
2019-05-10T11:22:27.628Z,84.50
2019-05-10T11:28:47.055Z,84.60
2019-05-10T11:31:21.415Z,86.30
2019-05-10T11:33:58.474Z,86.30
2019-05-10T11:36:31.264Z,85.90
2019-05-10T11:39:22.322Z,87.30
2019-05-10T11:41:42.620Z,87.20
2019-05-10T11:44:16.261Z,86.60
2019-05-10T11:46:50.768Z,83.80
2019-05-10T11:49:24.530Z,83.00
2019-05-10T11:52:03.377Z,82.60
2019-05-10T11:54:37.045Z,82.00
2019-05-10T11:59:04.694Z,82.70
2019-05-10T11:59:46.127Z,82.50
2019-05-10T12:02:35.361Z,80.20
2019-05-10T12:04:55.054Z,80.20
2019-05-10T12:10:14.442Z,78.70
2019-05-10T12:12:54.437Z,78.70
2019-05-10T12:15:15.630Z,79.70
2019-05-10T12:17:55.072Z,78.70
2019-05-10T12:20:38.937Z,80.90
2019-05-10T12:23:03.367Z,79.50
2019-05-10T12:25:51.480Z,78.70
2019-05-10T12:26:31.060Z,76.60
2019-05-10T12:28:10.615Z,79.40
2019-05-10T12:30:44.387Z,79.70
2019-05-10T12:33:24.872Z,79.60
2019-05-10T12:35:53.395Z,79.00
2019-05-10T12:38:29.503Z,80.20
2019-05-10T12:41:05.376Z,80.10
2019-05-10T12:43:37.675Z,80.10
2019-05-10T12:46:11.255Z,81.40
2019-05-10T12:48:44.929Z,79.30
2019-05-10T12:51:21.003Z,79.70
2019-05-10T12:57:30.921Z,81.80
2019-05-10T13:00:12.909Z,81.70
2019-05-10T13:02:44.845Z,80.80
2019-05-10T13:05:17.908Z,80.00
2019-05-10T13:07:51.541Z,79.40
2019-05-10T13:14:11.313Z,76.00
2019-05-10T13:16:44.983Z,80.10
2019-05-10T13:19:20.257Z,83.80
2019-05-10T13:21:58.801Z,85.30
2019-05-10T13:24:29.711Z,87.20
2019-05-10T13:27:03.681Z,86.90
2019-05-10T13:29:40.653Z,88.30
2019-05-10T13:32:14.814Z,90.10
2019-05-10T13:34:48.372Z,89.70
2019-05-10T13:37:24.793Z,89.20
2019-05-10T13:39:58.564Z,88.40
2019-05-10T13:42:36.570Z,89.30
2019-05-10T13:45:08.697Z,86.40
2019-05-10T13:47:42.328Z,87.80
2019-05-10T13:50:16.490Z,89.90
2019-05-10T13:52:50.158Z,90.60
2019-05-10T13:55:23.881Z,90.50
2019-05-10T13:57:57.642Z,90.80
2019-05-10T14:00:34.462Z,91.40
2019-05-10T14:03:11.323Z,92.00
2019-05-10T14:05:42.066Z,92.30
2019-05-10T14:08:17.329Z,92.60
2019-05-10T14:10:55.826Z,92.70
2019-05-10T14:13:26.279Z,93.00
2019-05-10T14:15:59.933Z,93.30
2019-05-10T14:18:33.619Z,93.20
2019-05-10T14:21:07.252Z,93.40
2019-05-10T14:23:40.984Z,93.70
2019-05-10T14:26:15.982Z,93.80
2019-05-10T14:28:53.102Z,93.70
2019-05-10T14:31:26.175Z,93.50
2019-05-10T14:34:14.544Z,93.70
2019-05-10T14:36:40.740Z,93.60
2019-05-10T14:42:48.030Z,93.60
2019-05-10T14:45:22.494Z,93.30
2019-05-10T14:47:56.240Z,92.90
2019-05-10T14:50:29.913Z,93.10
2019-05-10T14:53:03.718Z,93.40
2019-05-10T14:59:23.307Z,94.50
2019-05-10T15:01:56.909Z,95.10
2019-05-10T15:04:44.411Z,95.70
2019-05-10T15:07:08.594Z,95.80
2019-05-10T15:09:41.508Z,95.70
2019-05-10T15:12:16.458Z,95.90
2019-05-10T15:14:50.362Z,96.10
2019-05-10T15:17:24.014Z,96.30
2019-05-10T15:20:00.035Z,96.60
2019-05-10T15:22:33.016Z,97.00
2019-05-10T15:25:07.261Z,97.30
2019-05-10T15:27:40.955Z,97.50
2019-05-10T15:30:14.683Z,97.60
2019-05-10T15:32:48.326Z,97.70
2019-05-10T15:35:21.906Z,97.90
2019-05-10T15:37:56.000Z,97.80
2019-05-10T15:40:29.971Z,97.70
2019-05-10T15:43:04.084Z,97.50
2019-05-10T15:45:37.824Z,97.20
2019-05-10T15:48:11.637Z,96.80
2019-05-10T15:50:45.259Z,96.70
2019-05-10T15:53:25.536Z,96.60
2019-05-10T15:55:59.035Z,97.00
2019-05-10T15:58:30.583Z,97.30
2019-05-10T16:01:05.147Z,97.20
2019-05-10T16:03:38.854Z,97.20
2019-05-10T16:06:12.549Z,97.30
2019-05-10T16:08:46.343Z,97.90
2019-05-10T16:11:20.831Z,98.20
2019-05-10T16:13:59.946Z,98.10
2019-05-10T16:16:36.330Z,97.90
2019-05-10T16:19:05.511Z,98.10
2019-05-10T16:21:39.378Z,97.90
2019-05-10T16:24:13.645Z,97.60
2019-05-10T16:26:47.563Z,97.70
2019-05-10T16:29:21.320Z,97.70
2019-05-10T16:31:54.892Z,97.60
2019-05-10T16:34:32.295Z,97.30
2019-05-10T16:37:03.857Z,97.10
2019-05-10T16:43:19.590Z,97.20
2019-05-10T16:45:51.019Z,97.20
2019-05-10T16:48:28.119Z,97.30
2019-05-10T16:51:03.869Z,97.70
2019-05-10T16:53:37.847Z,97.80
2019-05-10T17:00:02.193Z,97.60
2019-05-10T17:02:36.612Z,97.90
2019-05-10T17:05:09.804Z,98.20
2019-05-10T17:07:43.935Z,98.40
2019-05-10T17:10:17.705Z,98.70
2019-05-10T17:12:51.525Z,99.00
2019-05-10T17:15:25.190Z,98.90
2019-05-10T17:17:58.919Z,98.90
2019-05-10T17:20:32.558Z,99.30
2019-05-10T17:23:08.860Z,99.50
2019-05-10T17:25:42.369Z,99.70
2019-05-10T17:28:16.094Z,99.90
2019-05-10T17:30:49.690Z,99.90
2019-05-10T17:33:23.322Z,99.90
2019-05-10T17:36:07.880Z,99.90
2019-05-10T17:38:32.956Z,99.90
2019-05-10T17:41:06.556Z,99.90
2019-05-10T17:43:40.268Z,99.90
2019-05-10T17:46:18.869Z,99.90
2019-05-10T17:48:49.533Z,99.90
2019-05-10T17:51:23.285Z,99.90
2019-05-10T17:54:01.723Z,99.90
2019-05-10T17:56:32.924Z,99.90
2019-05-10T17:59:12.361Z,99.90
2019-05-10T18:01:43.257Z,99.90
2019-05-10T18:04:16.989Z,99.90
2019-05-10T18:06:50.520Z,99.90
2019-05-10T18:09:24.200Z,99.90
2019-05-10T18:11:57.971Z,99.90
2019-05-10T18:14:31.589Z,99.90
2019-05-10T18:17:07.188Z,99.90
2019-05-10T18:19:40.701Z,99.90
2019-05-10T18:22:14.863Z,99.90
2019-05-10T18:28:25.552Z,99.90
2019-05-10T18:30:59.222Z,99.90
2019-05-10T18:33:32.833Z,99.90
2019-05-10T18:36:06.565Z,99.90
2019-05-10T18:38:40.229Z,99.90
2019-05-10T18:45:00.193Z,99.90
2019-05-10T18:47:33.961Z,99.90
2019-05-10T18:50:08.029Z,99.90
2019-05-10T18:52:41.635Z,99.90
2019-05-10T18:55:15.567Z,99.90
2019-05-10T18:57:50.651Z,99.90
2019-05-10T19:00:25.361Z,99.90
2019-05-10T19:02:59.107Z,99.90
2019-05-10T19:05:33.200Z,99.90
2019-05-10T19:08:06.921Z,99.90
2019-05-10T19:10:40.587Z,99.90
2019-05-10T19:13:14.285Z,99.90
2019-05-10T19:15:52.821Z,99.90
2019-05-10T19:18:25.494Z,99.90
2019-05-10T19:20:59.245Z,99.90
2019-05-10T19:23:33.939Z,99.90
2019-05-10T19:26:07.554Z,99.90
2019-05-10T19:28:41.976Z,99.90
2019-05-10T19:31:17.039Z,99.90
2019-05-10T19:33:50.640Z,99.90
2019-05-10T19:36:25.073Z,99.90
2019-05-10T19:38:58.705Z,99.90
2019-05-10T19:41:32.467Z,99.90
2019-05-10T19:44:06.201Z,99.90
2019-05-10T19:46:40.896Z,99.90
2019-05-10T19:49:16.470Z,99.90
2019-05-10T19:51:50.432Z,99.90
2019-05-10T19:54:24.112Z,99.90
2019-05-10T19:56:57.726Z,99.90
2019-05-10T19:59:31.409Z,99.90
2019-05-10T20:02:05.124Z,99.90
2019-05-10T20:04:38.805Z,99.90
2019-05-10T20:07:12.646Z,99.90
2019-05-10T20:09:46.689Z,99.90
2019-05-10T20:12:20.434Z,99.90
2019-05-10T20:14:54.083Z,99.90
2019-05-10T20:17:28.796Z,99.90
2019-05-10T20:20:02.695Z,99.90
2019-05-10T20:22:36.620Z,99.90
2019-05-10T20:25:10.729Z,99.90
2019-05-10T20:27:44.459Z,99.90
2019-05-10T20:30:18.561Z,99.90
2019-05-10T20:32:52.587Z,99.90
2019-05-10T20:35:26.717Z,99.90
2019-05-10T20:38:02.675Z,99.90
2019-05-10T20:44:13.862Z,99.90
2019-05-10T20:46:49.111Z,99.90
2019-05-10T20:49:22.801Z,99.90
2019-05-10T20:51:56.531Z,99.90
2019-05-10T20:54:30.587Z,99.90
2019-05-10T21:00:51.611Z,99.90
2019-05-10T21:03:25.279Z,99.90
2019-05-10T21:05:58.988Z,99.90
2019-05-10T21:08:33.670Z,99.90
2019-05-10T21:11:07.285Z,99.90
2019-05-10T21:13:40.883Z,99.90
2019-05-10T21:16:14.881Z,99.90
2019-05-10T21:18:49.293Z,99.90
2019-05-10T21:21:23.039Z,99.90
2019-05-10T21:23:56.950Z,99.90
2019-05-10T21:26:30.637Z,99.90
2019-05-10T21:29:04.443Z,99.90
2019-05-10T21:31:38.015Z,99.90
2019-05-10T21:34:11.721Z,99.90
2019-05-10T21:36:45.359Z,99.90
2019-05-10T21:39:20.066Z,99.90
2019-05-10T21:41:53.683Z,99.90
2019-05-10T21:44:27.343Z,99.90
2019-05-10T21:47:00.986Z,99.90
2019-05-10T21:49:34.953Z,99.90
2019-05-10T21:52:08.607Z,99.90
2019-05-10T21:54:42.260Z,99.90
2019-05-10T21:57:16.052Z,99.90
2019-05-10T21:59:49.650Z,99.90
2019-05-10T22:02:23.710Z,99.90
2019-05-10T22:04:57.276Z,99.90
2019-05-10T22:07:31.003Z,99.90
2019-05-10T22:10:06.697Z,99.90
2019-05-10T22:12:40.389Z,99.90
2019-05-10T22:15:14.081Z,99.90
2019-05-10T22:17:48.337Z,99.90
2019-05-10T22:20:22.005Z,99.90
2019-05-10T22:22:55.631Z,99.90
2019-05-10T22:25:29.340Z,99.90
2019-05-10T22:28:02.957Z,99.90
2019-05-10T22:30:36.681Z,99.90
2019-05-10T22:33:10.309Z,99.90
2019-05-10T22:35:43.894Z,99.90
2019-05-10T22:38:17.862Z,99.90
2019-05-10T22:44:28.680Z,99.90
2019-05-10T22:47:02.249Z,99.90
2019-05-10T22:49:35.881Z,99.90
2019-05-10T22:52:09.557Z,99.90
2019-05-10T22:54:43.229Z,99.90
2019-05-10T23:01:03.302Z,99.90
2019-05-10T23:03:36.963Z,99.90
2019-05-10T23:06:11.013Z,99.90
2019-05-10T23:08:44.981Z,99.90
2019-05-10T23:11:18.712Z,99.90
2019-05-10T23:13:52.291Z,99.90
2019-05-10T23:16:26.069Z,99.90
2019-05-10T23:18:59.788Z,99.90
2019-05-10T23:21:33.429Z,99.90
2019-05-10T23:24:07.027Z,99.90
2019-05-10T23:26:40.679Z,99.90
2019-05-10T23:29:14.265Z,99.90
2019-05-10T23:31:47.843Z,99.90
2019-05-10T23:34:21.486Z,99.90
2019-05-10T23:36:55.147Z,99.90
2019-05-10T23:39:40.295Z,99.90
2019-05-10T23:42:04.157Z,99.90
2019-05-10T23:44:37.795Z,99.90
2019-05-10T23:47:11.393Z,99.90
2019-05-10T23:49:45.026Z,99.90
2019-05-10T23:52:18.616Z,99.90
2019-05-10T23:54:53.713Z,99.90
2019-05-10T23:57:27.833Z,99.90
